Terminal Aerodrome Forecast
Issued by NWS

Home | Current Version | Previous Version | Text Only | Print | Product List | Glossary On
Versions: 1 2 3 4 5 6 7 8 9 10 11 12 13 14
000
FTUS45 KVEF 290525
TAFBIH
TAF
KBIH 290525Z 2906/3006 16010G18KT P6SM FEW120 SCT250
     FM290800 17008KT P6SM FEW120 FEW250
     FM291100 VRB05KT P6SM FEW120 FEW250
     FM291900 17013KT P6SM SCT120=

USA.gov is the U.S. government's official web portal to all federal, state and local government web resources and services.